Time;durP1;ratioP1;P1;durP2;ratioP2;P2;SDS_P1;SDS_P2;PMS_P1;PMS_P2;Temp;Humidity;BMP_temperature;BMP_pressure;BME280_temperature;BME280_humidity;BME280_pressure;Samples;Min_cycle;Max_cycle;Signal;HPM_P1;HPM_P2
2023/09/26 15:52:05;;;;;;;;;12.57;11.14;;;;;24.97;48.51;100229.09;6289224;20;3517236;-58
2023/09/26 15:54:34;;;;;;;;;14.33;11.00;;;;;24.83;48.85;100242.69;6284348;20;3517013;-58
2023/09/26 15:57:04;;;;;;;;;12.00;11.00;;;;;24.79;47.75;100235.81;6328530;20;3524165;-58
2023/09/26 15:59:33;;;;;;;;;17.00;12.00;;;;;24.56;48.93;100236.50;6301717;20;2485690;-58
2023/09/26 16:02:02;;;;;;;;;12.00;12.00;;;;;24.27;48.97;100240.56;6335409;20;2487768;-58
2023/09/26 16:04:33;;;;;;;;;17.33;14.33;;;;;24.29;48.39;100227.53;6335234;20;3544684;-53
2023/09/26 16:07:03;;;;;;;;;12.67;11.33;;;;;24.18;49.69;100233.38;6300218;20;3506590;-58
2023/09/26 16:09:32;;;;;;;;;18.33;16.00;;;;;24.07;48.82;100233.72;6336497;20;3560769;-56
2023/09/26 16:12:00;;;;;;;;;14.67;13.00;;;;;24.00;47.99;100235.41;6302516;20;3527353;-53
2023/09/26 16:14:29;;;;;;;;;9.00;8.00;;;;;23.92;48.46;100238.97;6341826;20;2750876;-57
2023/09/26 16:16:58;;;;;;;;;10.67;10.00;;;;;23.72;49.04;100237.53;6331256;20;3507671;-56
2023/09/26 16:19:28;;;;;;;;;16.33;11.67;;;;;23.53;49.07;100238.63;6332412;20;3530427;-52
2023/09/26 16:21:57;;;;;;;;;10.67;10.00;;;;;23.32;50.13;100237.16;6309158;20;2794113;-58
2023/09/26 16:24:26;;;;;;;;;12.00;10.67;;;;;23.10;50.28;100237.72;6331381;20;3516951;-54
2023/09/26 16:26:54;;;;;;;;;13.33;11.67;;;;;23.19;49.68;100237.59;6301914;20;2487824;-57
2023/09/26 16:29:24;;;;;;;;;12.00;9.33;;;;;23.10;49.24;100235.84;6333864;20;3500360;-57
2023/09/26 16:31:52;;;;;;;;;9.67;9.67;;;;;23.05;49.15;100238.22;6338079;20;2775323;-52
2023/09/26 16:34:21;;;;;;;;;11.67;10.00;;;;;22.82;50.46;100240.59;6329942;20;3507682;-56
2023/09/26 16:36:50;;;;;;;;;10.00;8.33;;;;;22.72;50.09;100239.81;6341997;20;2762806;-57
2023/09/26 16:39:18;;;;;;;;;13.00;9.67;;;;;22.82;49.56;100245.22;6332327;20;3504470;-54
2023/09/26 16:41:47;;;;;;;;;11.33;10.33;;;;;22.59;50.31;100234.75;6340347;20;2796133;-57
2023/09/26 16:44:16;;;;;;;;;11.67;7.67;;;;;22.61;50.70;100234.59;6335753;20;2765995;-56
2023/09/26 16:46:44;;;;;;;;;11.00;11.00;;;;;22.39;51.32;100239.56;6334109;20;3513820;-56
2023/09/26 16:49:13;;;;;;;;;9.33;9.33;;;;;22.39;52.34;100242.31;6336076;20;3486868;-54
2023/09/26 16:51:42;;;;;;;;;13.67;10.67;;;;;22.05;53.68;100247.56;6339026;20;3531524;-56
2023/09/26 16:54:14;;;;;;;;;14.67;12.33;;;;;21.96;54.38;100243.00;6336953;20;3516005;-56
2023/09/26 16:56:43;;;;;;;;;11.67;11.00;;;;;21.85;53.80;100241.34;6333461;20;3503453;-55
2023/09/26 16:59:12;;;;;;;;;10.67;10.67;;;;;21.76;54.90;100242.28;6328404;20;3502334;-54
2023/09/26 17:01:41;;;;;;;;;13.67;10.67;;;;;21.68;55.38;100245.78;6327339;20;3526294;-57
2023/09/26 17:04:11;;;;;;;;;13.33;12.33;;;;;21.56;57.33;100252.47;6305631;20;3530485;-58
2023/09/26 17:06:44;;;;;;;;;11.00;11.00;;;;;21.30;59.96;100242.22;6315032;20;2792056;-56
2023/09/26 17:09:12;;;;;;;;;11.33;9.67;;;;;21.14;58.67;100245.53;6311649;20;2489907;-54
2023/09/26 17:11:41;;;;;;;;;13.67;10.00;;;;;21.11;59.70;100243.13;6313240;20;2487760;-56
2023/09/26 17:14:10;;;;;;;;;14.00;11.33;;;;;21.10;58.31;100249.59;6314571;20;2797225;-57
2023/09/26 17:16:39;;;;;;;;;13.00;10.67;;;;;21.23;55.54;100247.41;6312315;20;2778404;-54
2023/09/26 17:19:08;;;;;;;;;12.33;10.67;;;;;21.08;57.44;100243.41;6305887;20;3510732;-54
2023/09/26 17:21:36;;;;;;;;;10.67;10.00;;;;;20.99;59.49;100249.78;6279781;20;2483624;-57
2023/09/26 17:24:06;;;;;;;;;11.67;10.67;;;;;20.79;60.20;100244.34;6313147;20;2490049;-56
2023/09/26 17:26:34;;;;;;;;;12.67;11.00;;;;;20.85;58.35;100252.97;6307517;20;2484063;-53
2023/09/26 17:29:03;;;;;;;;;11.00;10.33;;;;;20.90;58.18;100246.06;6308591;20;2791005;-57
2023/09/26 17:31:32;;;;;;;;;11.67;10.67;;;;;20.65;62.56;100246.69;6305597;20;2485658;-54
2023/09/26 17:34:01;;;;;;;;;11.67;10.67;;;;;21.12;56.81;100244.00;6306969;20;3506538;-57
2023/09/26 17:36:30;;;;;;;;;11.67;10.67;;;;;20.78;59.37;100250.84;6307504;20;3510767;-57
2023/09/26 17:38:59;;;;;;;;;16.67;12.67;;;;;20.83;60.41;100256.72;6308598;20;3533640;-54
2023/09/26 17:41:30;;;;;;;;;10.33;10.33;;;;;20.87;57.79;100256.41;6274460;20;3516975;-52
2023/09/26 17:44:00;;;;;;;;;15.67;13.00;;;;;20.93;57.95;100264.00;6314770;20;2794963;-57
2023/09/26 17:46:29;;;;;;;;;9.00;8.67;;;;;20.73;57.71;100261.31;6306230;20;3465949;-55
2023/09/26 17:48:57;;;;;;;;;14.00;11.33;;;;;20.85;59.17;100269.34;6315226;20;2790949;-52
2023/09/26 17:51:26;;;;;;;;;17.00;11.00;;;;;20.30;60.20;100265.34;6310243;20;3524267;-54
2023/09/26 17:53:56;;;;;;;;;10.67;10.67;;;;;20.10;64.54;100269.06;6277950;20;3510826;-57
2023/09/26 17:56:25;;;;;;;;;11.67;11.33;;;;;20.13;64.73;100266.03;6272616;20;3509647;-55
2023/09/26 17:58:53;;;;;;;;;11.33;11.00;;;;;20.07;65.17;100258.44;6309221;20;3510677;-58
2023/09/26 18:01:22;;;;;;;;;14.67;10.67;;;;;20.02;66.18;100260.72;6278101;20;2786717;-52
2023/09/26 18:03:51;;;;;;;;;11.00;11.00;;;;;19.92;66.12;100260.69;6307798;20;3511712;-57
2023/09/26 18:06:22;;;;;;;;;11.33;10.33;;;;;19.57;67.07;100266.59;6307649;20;3514843;-55
2023/09/26 18:08:52;;;;;;;;;15.67;12.67;;;;;19.65;67.19;100264.03;6276668;20;3532567;-57
2023/09/26 18:11:21;;;;;;;;;13.67;12.00;;;;;19.44;70.53;100267.69;6274618;20;3512869;-54
2023/09/26 18:13:49;;;;;;;;;13.67;13.00;;;;;19.55;70.49;100265.88;6270195;20;2492088;-57
2023/09/26 18:16:18;;;;;;;;;12.33;11.00;;;;;19.48;68.53;100274.59;6306665;20;3512889;-55
2023/09/26 18:18:47;;;;;;;;;13.33;10.67;;;;;19.24;73.66;100265.88;6307829;20;3515883;-54
2023/09/26 18:21:16;;;;;;;;;17.00;15.00;;;;;19.33;73.89;100265.06;6305498;20;3536832;-53
2023/09/26 18:23:44;;;;;;;;;14.33;12.67;;;;;19.32;74.48;100263.31;6275620;20;3520156;-58
2023/09/26 18:26:13;;;;;;;;;16.00;13.00;;;;;18.91;76.70;100267.84;6309191;20;2492066;-56
2023/09/26 18:28:42;;;;;;;;;17.00;16.00;;;;;18.99;77.65;100268.03;6312236;20;3567009;-57
2023/09/26 18:31:10;;;;;;;;;19.00;17.33;;;;;18.69;80.47;100273.38;6270591;20;3573281;-55
2023/09/26 18:33:44;;;;;;;;;28.00;21.33;;;;;19.00;79.46;100272.47;6273886;20;3589875;-55
2023/09/26 18:36:12;;;;;;;;;22.00;19.67;;;;;18.86;80.56;100273.69;6309002;20;3571267;-57
2023/09/26 18:38:41;;;;;;;;;21.00;18.67;;;;;18.74;81.80;100273.84;6276009;20;3574340;-56
2023/09/26 18:41:10;;;;;;;;;23.33;21.67;;;;;18.53;81.77;100274.69;6278454;20;3576304;-55
2023/09/26 18:43:42;;;;;;;;;21.67;16.00;;;;;18.43;81.50;100281.91;6277565;20;3567996;-57
2023/09/26 18:46:12;;;;;;;;;16.00;16.00;;;;;18.46;80.40;100284.41;6276212;20;3587843;-57
2023/09/26 18:48:41;;;;;;;;;20.00;18.00;;;;;18.76;79.40;100288.22;6272476;20;2839873;-57
2023/09/26 18:51:12;;;;;;;;;21.00;18.67;;;;;18.56;79.18;100288.06;6277821;20;3581516;-57
2023/09/26 18:53:41;;;;;;;;;18.00;16.00;;;;;18.86;78.56;100302.75;6274898;20;2826321;-55
2023/09/26 18:56:11;;;;;;;;;19.00;18.33;;;;;18.70;77.98;100299.63;6277846;20;3566970;-53
2023/09/26 18:58:40;;;;;;;;;18.00;15.50;;;;;18.46;79.37;100303.44;6275941;20;2825355;-55
2023/09/26 19:01:08;;;;;;;;;18.50;14.50;;;;;18.23;83.91;100299.06;6276476;20;2820250;-56
2023/09/26 19:03:36;;;;;;;;;14.00;13.00;;;;;18.39;79.32;100299.50;6276399;20;2781549;-54
2023/09/26 19:06:06;;;;;;;;;20.00;16.50;;;;;18.12;80.53;100298.09;6276594;20;2824237;-54
2023/09/26 19:08:36;;;;;;;;;19.50;19.00;;;;;18.00;81.97;100301.81;6276476;20;2829196;-54
2023/09/26 19:11:06;;;;;;;;;19.00;16.50;;;;;18.00;81.69;100301.81;6277590;20;2835710;-53
2023/09/26 19:13:34;;;;;;;;;19.00;18.00;;;;;18.04;81.89;100299.75;6271782;20;2825778;-56
2023/09/26 19:16:04;;;;;;;;;20.00;17.00;;;;;17.96;82.58;100303.09;6275728;20;2831573;-56
2023/09/26 19:18:32;;;;;;;;;14.00;14.00;;;;;18.21;81.10;100297.31;6273786;20;2799211;-56
2023/09/26 19:21:02;;;;;;;;;13.67;13.00;;;;;18.03;83.38;100307.00;6275416;20;3529511;-58
2023/09/26 19:23:31;;;;;;;;;21.33;16.00;;;;;17.82;83.96;100304.19;6274017;20;3578415;-55
2023/09/26 19:26:04;;;;;;;;;19.33;18.00;;;;;17.94;83.63;100311.34;6271886;20;2483744;-56
2023/09/26 19:28:33;;;;;;;;;19.00;17.33;;;;;18.01;83.67;100311.72;6312035;20;3571108;-58
2023/09/26 19:31:01;;;;;;;;;20.00;18.67;;;;;17.82;84.20;100308.78;6278617;20;3564830;-57
2023/09/26 19:33:30;;;;;;;;;18.33;17.33;;;;;17.62;84.60;100313.97;6303445;20;3564960;-56
2023/09/26 19:35:59;;;;;;;;;21.33;16.67;;;;;17.92;82.99;100309.75;6307861;20;3557785;-58
2023/09/26 19:38:28;;;;;;;;;20.33;19.67;;;;;17.87;84.31;100310.13;6271620;20;3579532;-56
2023/09/26 19:40:57;;;;;;;;;22.00;20.50;;;;;17.55;85.66;100315.44;6274989;20;2830615;-56
2023/09/26 19:43:30;;;;;;;;;21.00;18.00;;;;;17.42;87.85;100323.69;6274142;20;2828492;-54
2023/09/26 19:46:00;;;;;;;;;23.67;21.67;;;;;17.62;86.89;100313.97;6268685;20;2821208;-57
2023/09/26 19:48:29;;;;;;;;;25.67;20.00;;;;;17.55;88.21;100320.88;6304890;20;3582589;-55
2023/09/26 19:51:00;;;;;;;;;19.00;17.50;;;;;17.67;86.57;100322.59;6270604;20;2820066;-55
2023/09/26 19:53:29;;;;;;;;;20.00;18.33;;;;;17.52;87.05;100319.25;6275004;20;3573316;-56
2023/09/26 19:56:00;;;;;;;;;31.00;22.75;;;;;17.40;87.77;100319.38;6273280;20;3617014;-55
2023/09/26 19:58:29;;;;;;;;;21.33;20.00;;;;;17.17;89.08;100319.38;6305720;20;3573343;-55
2023/09/26 20:00:58;;;;;;;;;20.33;18.33;;;;;17.09;88.35;100319.13;6272822;20;3570165;-57
2023/09/26 20:03:27;;;;;;;;;22.67;21.00;;;;;17.13;87.69;100312.44;6267956;20;2838800;-57
2023/09/26 20:05:56;;;;;;;;;21.67;20.00;;;;;16.95;87.48;100313.88;6305001;20;3561937;-58
2023/09/26 20:08:25;;;;;;;;;22.00;21.00;;;;;17.11;88.96;100318.00;6273207;20;3570668;-56
2023/09/26 20:10:54;;;;;;;;;27.00;22.33;;;;;17.04;87.32;100324.03;6276528;20;3590993;-56
2023/09/26 20:13:23;;;;;;;;;30.00;24.00;;;;;16.94;89.00;100323.03;6278109;20;3596067;-54
2023/09/26 20:15:52;;;;;;;;;28.33;25.00;;;;;16.85;89.88;100320.03;6279183;20;3600257;-54
2023/09/26 20:18:20;;;;;;;;;23.33;19.67;;;;;16.83;91.21;100316.59;6275028;20;3579465;-55
2023/09/26 20:20:49;;;;;;;;;25.00;22.33;;;;;16.76;91.56;100320.72;6282060;20;3590292;-55
2023/09/26 20:23:18;;;;;;;;;23.33;22.00;;;;;16.75;91.14;100324.41;6281409;20;3577380;-58
2023/09/26 20:25:47;;;;;;;;;31.67;25.00;;;;;16.60;91.94;100322.88;6281843;20;3608973;-56
2023/09/26 20:28:16;;;;;;;;;28.00;23.00;;;;;16.82;90.78;100325.69;6282970;20;3600399;-58
2023/09/26 20:30:46;;;;;;;;;24.33;22.00;;;;;16.53;92.41;100329.75;6279774;20;3572262;-56
2023/09/26 20:33:14;;;;;;;;;25.00;23.00;;;;;16.58;92.59;100322.13;6280303;20;3583629;-54
2023/09/26 20:35:43;;;;;;;;;27.00;24.00;;;;;16.30;93.17;100321.53;6276057;20;3597247;-56
2023/09/26 20:38:12;;;;;;;;;30.00;24.67;;;;;16.11;93.55;100318.44;6285636;20;3604406;-54
2023/09/26 20:40:40;;;;;;;;;25.00;22.00;;;;;16.40;92.51;100324.38;6288571;20;3580625;-56
2023/09/26 20:43:10;;;;;;;;;24.00;21.67;;;;;16.01;95.36;100319.16;6283017;20;2838966;-54
2023/09/26 20:45:40;;;;;;;;;26.33;22.33;;;;;16.27;94.05;100329.00;6316157;20;3581721;-57
2023/09/26 20:48:09;;;;;;;;;25.33;22.67;;;;;15.99;95.10;100321.09;6286780;20;3581529;-55
2023/09/26 20:50:37;;;;;;;;;22.00;18.67;;;;;16.27;95.07;100329.84;6284912;20;3570148;-57
2023/09/26 20:53:08;;;;;;;;;21.67;20.00;;;;;16.51;93.38;100331.69;6284018;20;3570160;-53
2023/09/26 20:55:37;;;;;;;;;21.67;21.67;;;;;16.15;94.80;100331.66;6281588;20;3575291;-54
2023/09/26 20:58:06;;;;;;;;;25.67;23.67;;;;;16.41;93.82;100321.56;6280201;20;3585703;-53
2023/09/26 21:00:36;;;;;;;;;25.67;20.33;;;;;16.34;93.82;100327.56;6287378;20;3589967;-56
2023/09/26 21:03:06;;;;;;;;;26.00;23.67;;;;;16.28;94.59;100331.59;6284920;20;3584648;-57
2023/09/26 21:05:37;;;;;;;;;25.50;21.50;;;;;16.19;95.89;100333.16;6281229;20;2843142;-57
2023/09/26 21:08:07;;;;;;;;;22.67;21.33;;;;;16.08;95.46;100329.50;6283992;20;2846263;-54
2023/09/26 21:10:36;;;;;;;;;24.00;21.00;;;;;15.60;97.27;100324.84;6316585;20;3576515;-55
2023/09/26 21:13:05;;;;;;;;;19.33;19.33;;;;;16.03;97.02;100327.13;6284809;20;3569003;-55
2023/09/26 21:15:35;;;;;;;;;23.00;21.33;;;;;15.90;97.89;100331.72;6291360;20;3563777;-51
2023/09/26 21:18:03;;;;;;;;;23.00;20.00;;;;;16.05;97.14;100329.75;6316879;20;3581547;-52
2023/09/26 21:20:33;;;;;;;;;23.00;20.67;;;;;15.96;96.38;100334.00;6281872;20;2837923;-52
2023/09/26 21:23:02;;;;;;;;;19.50;18.00;;;;;16.06;96.22;100336.88;6314547;20;2835726;-57
2023/09/26 21:25:31;;;;;;;;;23.00;23.00;;;;;15.94;96.50;100328.69;6286128;20;3580512;-57
2023/09/26 21:28:00;;;;;;;;;22.50;20.00;;;;;15.96;96.44;100331.31;6280261;20;2841945;-54
2023/09/26 21:30:29;;;;;;;;;23.67;22.67;;;;;15.94;97.13;100339.53;6284848;20;3581587;-56
2023/09/26 21:32:58;;;;;;;;;21.50;18.50;;;;;15.61;98.58;100331.97;6280963;20;2832670;-56
2023/09/26 21:35:28;;;;;;;;;24.67;23.00;;;;;15.54;97.86;100342.41;6281664;20;2836288;-55
2023/09/26 21:37:56;;;;;;;;;26.67;22.67;;;;;15.32;100.00;100342.19;6317905;20;3587753;-54
2023/09/26 21:40:25;;;;;;;;;23.67;21.00;;;;;15.71;98.76;100343.03;6285612;20;3568049;-53
2023/09/26 21:42:54;;;;;;;;;23.33;22.33;;;;;15.91;98.08;100347.88;6315935;20;3573281;-56
2023/09/26 21:45:24;;;;;;;;;18.50;18.50;;;;;15.17;99.14;100343.28;6273478;20;2837829;-56
2023/09/26 21:47:52;;;;;;;;;22.33;20.00;;;;;15.66;98.57;100340.63;6279468;20;3578415;-56
2023/09/26 21:50:22;;;;;;;;;23.33;21.67;;;;;15.53;99.10;100335.25;6281494;20;2847170;-56
2023/09/26 21:52:51;;;;;;;;;21.33;18.67;;;;;15.41;99.73;100335.28;6317061;20;3581649;-50
2023/09/26 21:55:20;;;;;;;;;23.00;20.00;;;;;15.33;100.00;100335.81;6283030;20;3558582;-56
2023/09/26 21:57:49;;;;;;;;;22.67;22.67;;;;;15.47;99.99;100335.69;6280748;20;2842001;-55
2023/09/26 22:00:22;;;;;;;;;18.00;18.00;;;;;15.33;99.61;100331.25;6312859;20;3561843;-54
2023/09/26 22:02:54;;;;;;;;;25.00;23.67;;;;;15.31;100.00;100335.06;6280021;20;2832602;-54
2023/09/26 22:05:25;;;;;;;;;25.33;21.00;;;;;14.99;100.00;100340.88;6311791;20;2838832;-53
2023/09/26 22:07:56;;;;;;;;;23.00;20.33;;;;;15.50;99.46;100335.47;6318105;20;3581615;-53
2023/09/26 22:10:28;;;;;;;;;21.33;18.33;;;;;14.91;99.64;100337.84;6284520;20;3564858;-56
2023/09/26 22:12:57;;;;;;;;;23.67;22.00;;;;;14.82;100.00;100338.47;6282769;20;3562807;-54
2023/09/26 22:15:26;;;;;;;;;27.33;23.00;;;;;15.32;100.00;100334.97;6280037;20;3586878;-55
2023/09/26 22:17:57;;;;;;;;;22.33;21.33;;;;;15.14;100.00;100336.25;6282957;20;2839873;-56
2023/09/26 22:20:30;;;;;;;;;20.67;20.00;;;;;15.40;99.93;100337.09;6316310;20;3572141;-55
2023/09/26 22:23:02;;;;;;;;;24.67;22.00;;;;;15.67;97.81;100336.97;6279459;20;3580497;-55
2023/09/26 22:25:31;;;;;;;;;26.33;21.67;;;;;15.64;97.45;100326.38;6313583;20;3594134;-55
2023/09/26 22:28:00;;;;;;;;;27.00;21.00;;;;;14.89;100.00;100335.25;6285846;20;3589952;-56
2023/09/26 22:30:31;;;;;;;;;24.00;22.00;;;;;15.07;100.00;100332.25;6279412;20;3580503;-55
2023/09/26 22:33:00;;;;;;;;;22.33;20.00;;;;;15.08;99.87;100328.53;6283896;20;3583604;-52
2023/09/26 22:35:30;;;;;;;;;23.50;18.00;;;;;14.83;100.00;100329.41;6280635;20;2844152;-55
2023/09/26 22:37:58;;;;;;;;;23.00;20.00;;;;;15.16;100.00;100328.88;6282362;20;2842978;-54
2023/09/26 22:40:27;;;;;;;;;19.00;19.00;;;;;14.85;100.00;100332.84;6284419;20;3579421;-54
2023/09/26 22:43:11;;;;;;;;;28.67;22.67;;;;;15.09;100.00;100336.56;6282990;20;3585806;-55
2023/09/26 22:45:41;;;;;;;;;21.33;20.00;;;;;15.19;100.00;100333.19;6278065;20;2846106;-51
2023/09/26 22:48:13;;;;;;;;;28.00;24.00;;;;;15.02;100.00;100343.38;6314788;20;3582685;-54
2023/09/26 22:50:42;;;;;;;;;27.33;22.67;;;;;14.89;100.00;100339.78;6282262;20;3584661;-53
2023/09/26 22:53:11;;;;;;;;;24.00;20.33;;;;;14.77;100.00;100335.22;6282192;20;3576420;-52
2023/09/26 22:55:40;;;;;;;;;25.67;21.67;;;;;14.85;100.00;100336.44;6278802;20;2846466;-54
2023/09/26 22:58:09;;;;;;;;;24.33;20.00;;;;;14.84;100.00;100337.38;6313882;20;3578572;-49
2023/09/26 23:00:39;;;;;;;;;22.00;22.00;;;;;14.89;100.00;100350.59;6278749;20;3583558;-54
2023/09/26 23:03:08;;;;;;;;;21.00;20.00;;;;;14.70;100.00;100342.88;6282915;20;3568987;-54
2023/09/26 23:05:38;;;;;;;;;25.33;21.00;;;;;14.87;100.00;100341.72;6279330;20;2844462;-56
2023/09/26 23:08:08;;;;;;;;;28.33;25.00;;;;;14.98;100.00;100344.56;6312005;20;2850395;-52
2023/09/26 23:10:37;;;;;;;;;26.33;21.67;;;;;15.13;100.00;100342.63;6313164;20;3571090;-55
2023/09/26 23:13:07;;;;;;;;;24.00;19.00;;;;;14.71;100.00;100342.78;6278749;20;2827399;-55
2023/09/26 23:15:36;;;;;;;;;22.00;21.00;;;;;14.34;100.00;100338.09;6281574;20;2844067;-52
2023/09/26 23:18:05;;;;;;;;;22.50;20.50;;;;;14.49;100.00;100337.94;6279691;20;2838214;-54
2023/09/26 23:20:40;;;;;;;;;24.00;19.00;;;;;14.91;100.00;100344.13;6277811;20;2827534;-55
2023/09/26 23:23:09;;;;;;;;;24.50;20.00;;;;;14.96;99.74;100340.25;6282377;20;2832681;-57
2023/09/26 23:25:37;;;;;;;;;21.00;19.00;;;;;14.60;99.92;100339.09;6276216;20;2494044;-54
2023/09/26 23:28:06;;;;;;;;;25.50;21.50;;;;;14.47;100.00;100339.00;6283008;20;2835703;-53
2023/09/26 23:30:36;;;;;;;;;23.00;20.67;;;;;14.67;100.00;100335.00;6279978;20;2836815;-57
2023/09/26 23:33:05;;;;;;;;;21.33;16.00;;;;;14.21;100.00;100332.63;6313107;20;3553452;-53
2023/09/26 23:35:35;;;;;;;;;23.00;19.00;;;;;14.53;100.00;100332.34;6310770;20;2839909;-55
2023/09/26 23:38:03;;;;;;;;;17.50;16.00;;;;;14.78;100.00;100332.41;6280055;20;2492092;-53
2023/09/26 23:40:32;;;;;;;;;21.00;20.00;;;;;14.67;100.00;100325.03;6280982;20;2848906;-53
2023/09/26 23:43:02;;;;;;;;;25.00;21.50;;;;;14.34;100.00;100338.09;6277658;20;2836823;-55
2023/09/26 23:45:31;;;;;;;;;25.00;21.00;;;;;14.03;100.00;100329.31;6279681;20;2833730;-51
2023/09/26 23:48:01;;;;;;;;;25.00;23.00;;;;;14.88;100.00;100333.50;6277146;20;2847170;-54
2023/09/26 23:50:29;;;;;;;;;18.50;18.00;;;;;14.46;100.00;100337.28;6278314;20;2822183;-56
2023/09/26 23:52:59;;;;;;;;;21.00;16.50;;;;;14.35;100.00;100327.19;6280187;20;2824248;-55
